Time;durP1;ratioP1;P1;durP2;ratioP2;P2;SDS_P1;SDS_P2;PMS_P1;PMS_P2;Temp;Humidity;BMP_temperature;BMP_pressure;BME280_temperature;BME280_humidity;BME280_pressure;Samples;Min_cycle;Max_cycle;Signal;HPM_P1;HPM_P2
2022/09/09 00:01:22;;;;;;;2.15;1.40;;;;;;;;;;6155217;23;20031;-73
2022/09/09 00:04:10;;;;;;;1.60;1.50;;;;;;;;;;6178826;23;20103;-74
2022/09/09 00:07:04;;;;;;;5.07;1.77;;;;;;;;;;6179451;23;20031;-75
2022/09/09 00:09:37;;;;;;;2.90;1.75;;;;;;;;;;6178019;23;20104;-75
2022/09/09 00:12:13;;;;;;;2.95;1.95;;;;;;;;;;6180011;23;20104;-74
2022/09/09 00:14:45;;;;;;;4.03;1.60;;;;;;;;;;6177817;23;20657;-74
2022/09/09 00:17:26;;;;;;;3.97;1.77;;;;;;;;;;6178510;23;20040;-75
2022/09/09 00:20:02;;;;;;;2.67;1.77;;;;;;;;;;6152485;23;20035;-75
2022/09/09 00:22:39;;;;;;;3.75;2.10;;;;;;;;;;6177004;23;20020;-74
2022/09/09 00:25:16;;;;;;;6.40;1.55;;;;;;;;;;6178493;23;20135;-74
2022/09/09 00:27:51;;;;;;;2.45;1.55;;;;;;;;;;6179471;23;20024;-74
2022/09/09 00:30:23;;;;;;;5.28;2.15;;;;;;;;;;6178786;23;20029;-74
2022/09/09 00:33:00;;;;;;;3.13;1.90;;;;;;;;;;6155460;23;20458;-74
2022/09/09 00:35:33;;;;;;;1.55;1.45;;;;;;;;;;6179962;23;20024;-74
2022/09/09 00:38:25;;;;;;;3.00;1.92;;;;;;;;;;6179495;23;20028;-74
2022/09/09 00:40:55;;;;;;;3.88;1.95;;;;;;;;;;6153527;23;20032;-74
2022/09/09 00:43:35;;;;;;;3.72;1.98;;;;;;;;;;6180546;23;20021;-75
2022/09/09 00:46:14;;;;;;;2.10;1.90;;;;;;;;;;6179688;23;20375;-74
2022/09/09 00:48:57;;;;;;;2.13;1.90;;;;;;;;;;6180356;23;20030;-73
2022/09/09 00:51:39;;;;;;;8.18;1.92;;;;;;;;;;6178986;23;20056;-75
2022/09/09 00:54:12;;;;;;;3.28;1.80;;;;;;;;;;6179985;23;20021;-74
2022/09/09 00:57:00;;;;;;;5.70;1.67;;;;;;;;;;6179055;23;20458;-75
2022/09/09 00:59:53;;;;;;;2.72;1.77;;;;;;;;;;6178999;23;20350;-73
2022/09/09 01:02:27;;;;;;;2.80;1.92;;;;;;;;;;6154442;23;20046;-75
2022/09/09 01:05:05;;;;;;;3.67;2.17;;;;;;;;;;6179985;23;20075;-75
2022/09/09 01:07:34;;;;;;;3.13;2.22;;;;;;;;;;6181454;23;20025;-74
2022/09/09 01:10:04;;;;;;;3.03;1.90;;;;;;;;;;6178450;23;20505;-75
2022/09/09 01:12:41;;;;;;;3.35;2.33;;;;;;;;;;6180833;23;20048;-74
2022/09/09 01:15:13;;;;;;;4.43;2.03;;;;;;;;;;6180392;23;20032;-74
2022/09/09 01:17:52;;;;;;;3.03;1.75;;;;;;;;;;6179807;23;20029;-75
2022/09/09 01:20:22;;;;;;;2.60;2.13;;;;;;;;;;6181059;23;20027;-75
2022/09/09 01:23:17;;;;;;;3.15;2.20;;;;;;;;;;6180458;23;20021;-75
2022/09/09 01:25:50;;;;;;;2.05;1.70;;;;;;;;;;6118019;23;20450;-75
2022/09/09 01:28:27;;;;;;;4.70;2.20;;;;;;;;;;6179341;23;20031;-75
2022/09/09 01:30:54;;;;;;;2.90;1.90;;;;;;;;;;6178537;23;20024;-75
2022/09/09 01:33:21;;;;;;;2.17;1.98;;;;;;;;;;6182133;23;20032;-74
2022/09/09 01:36:31;;;;;;;4.20;2.38;;;;;;;;;;6180279;23;20103;-74
2022/09/09 01:38:58;;;;;;;1.95;1.80;;;;;;;;;;6060218;23;20096;-74
2022/09/09 01:41:32;;;;;;;3.45;2.00;;;;;;;;;;6160391;23;20338;-74
2022/09/09 01:44:00;;;;;;;3.30;2.47;;;;;;;;;;6179673;23;20168;-75
2022/09/09 01:46:28;;;;;;;3.60;2.10;;;;;;;;;;6180075;23;20021;-74
2022/09/09 01:49:04;;;;;;;2.13;1.85;;;;;;;;;;6181465;23;20099;-74
2022/09/09 01:51:31;;;;;;;2.35;1.88;;;;;;;;;;6180474;23;20028;-75
2022/09/09 01:53:58;;;;;;;4.57;2.30;;;;;;;;;;6180086;23;20099;-75
2022/09/09 01:56:51;;;;;;;4.55;2.25;;;;;;;;;;6180898;23;20025;-75
2022/09/09 01:59:27;;;;;;;3.45;2.55;;;;;;;;;;6180723;23;20031;-75
2022/09/09 02:02:24;;;;;;;2.60;2.10;;;;;;;;;;6179242;23;20489;-75
2022/09/09 02:04:55;;;;;;;3.17;2.25;;;;;;;;;;6165094;23;20271;-74
2022/09/09 02:07:34;;;;;;;6.85;2.15;;;;;;;;;;6180651;23;20043;-74
2022/09/09 02:10:07;;;;;;;5.30;2.20;;;;;;;;;;6180230;23;20025;-74
2022/09/09 02:12:44;;;;;;;2.65;2.20;;;;;;;;;;6179462;23;20035;-74
2022/09/09 02:15:18;;;;;;;3.67;2.38;;;;;;;;;;6180928;23;20585;-74
2022/09/09 02:17:53;;;;;;;2.70;2.10;;;;;;;;;;6179308;23;20028;-74
2022/09/09 02:20:20;;;;;;;3.28;2.33;;;;;;;;;;6179916;23;20104;-74
2022/09/09 02:22:49;;;;;;;;;;;;;;;;;;6180426;23;20028;-75
2022/09/09 02:25:36;;;;;;;6.55;2.20;;;;;;;;;;6175703;23;19916;-74
2022/09/09 02:28:09;;;;;;;3.35;1.95;;;;;;;;;;6179666;23;20474;-74
2022/09/09 02:30:44;;;;;;;4.13;2.08;;;;;;;;;;6180083;23;20020;-75
2022/09/09 02:33:12;;;;;;;2.63;2.30;;;;;;;;;;6176987;23;20363;-75
2022/09/09 02:35:41;;;;;;;2.53;2.03;;;;;;;;;;6178299;23;20048;-75
2022/09/09 02:38:15;;;;;;;3.03;2.17;;;;;;;;;;6179567;23;20025;-74
2022/09/09 02:40:42;;;;;;;3.58;2.25;;;;;;;;;;6180549;23;20096;-74
2022/09/09 02:43:09;;;;;;;4.25;2.42;;;;;;;;;;6179401;23;20029;-75
2022/09/09 02:45:56;;;;;;;4.38;2.40;;;;;;;;;;6179024;23;20025;-74
2022/09/09 02:48:32;;;;;;;2.92;2.10;;;;;;;;;;6180545;23;20021;-75
2022/09/09 02:51:11;;;;;;;5.80;2.30;;;;;;;;;;6179711;23;20028;-74
2022/09/09 02:53:41;;;;;;;3.55;2.53;;;;;;;;;;6180450;23;20324;-75
2022/09/09 02:56:20;;;;;;;2.00;1.80;;;;;;;;;;6180206;23;20025;-75
2022/09/09 02:58:47;;;;;;;4.93;2.10;;;;;;;;;;6179639;23;20031;-75
2022/09/09 03:01:22;;;;;;;2.38;2.00;;;;;;;;;;6180220;23;20478;-75
2022/09/09 03:03:49;;;;;;;3.17;2.30;;;;;;;;;;6180099;23;20080;-75
2022/09/09 03:06:16;;;;;;;4.05;2.28;;;;;;;;;;6179584;23;20397;-75
2022/09/09 03:08:52;;;;;;;4.82;2.20;;;;;;;;;;6181936;23;20064;-74
2022/09/09 03:11:19;;;;;;;4.22;2.47;;;;;;;;;;6180800;23;20024;-74
2022/09/09 03:13:46;;;;;;;4.53;2.40;;;;;;;;;;6180366;23;20021;-74
2022/09/09 03:16:21;;;;;;;4.45;2.03;;;;;;;;;;6179876;23;20023;-75
2022/09/09 03:18:48;;;;;;;;;;;;;;;;;;6180699;23;20104;-74
2022/09/09 03:21:16;;;;;;;2.15;1.90;;;;;;;;;;6180616;23;19916;-74
2022/09/09 03:24:03;;;;;;;3.33;2.22;;;;;;;;;;6180741;23;20103;-74
2022/09/09 03:26:37;;;;;;;3.65;2.00;;;;;;;;;;6180471;23;20027;-75
2022/09/09 03:29:15;;;;;;;4.82;2.00;;;;;;;;;;6155334;23;20658;-74
2022/09/09 03:31:42;;;;;;;2.88;2.00;;;;;;;;;;6179846;23;20023;-74
2022/09/09 03:34:10;;;;;;;4.45;2.35;;;;;;;;;;6179219;23;20514;-74
2022/09/09 03:36:44;;;;;;;3.42;2.05;;;;;;;;;;6179895;23;20028;-74
2022/09/09 03:39:11;;;;;;;6.20;2.03;;;;;;;;;;6180173;23;20020;-74
2022/09/09 03:41:38;;;;;;;3.58;2.28;;;;;;;;;;6179349;23;20151;-75
2022/09/09 03:44:12;;;;;;;2.38;2.00;;;;;;;;;;6155944;23;20088;-74
2022/09/09 03:46:39;;;;;;;3.97;2.20;;;;;;;;;;6179937;23;20100;-76
2022/09/09 03:49:06;;;;;;;3.05;1.90;;;;;;;;;;6179128;23;20021;-74
2022/09/09 03:51:40;;;;;;;2.17;1.80;;;;;;;;;;6179633;23;20025;-74
2022/09/09 03:54:09;;;;;;;3.05;2.20;;;;;;;;;;6180610;23;20084;-74
2022/09/09 03:56:37;;;;;;;4.60;2.13;;;;;;;;;;6152748;23;20100;-75
2022/09/09 03:59:11;;;;;;;2.20;1.95;;;;;;;;;;6179318;23;20117;-75
2022/09/09 04:01:38;;;;;;;3.58;2.20;;;;;;;;;;6178768;23;20357;-74
2022/09/09 04:04:05;;;;;;;3.03;2.17;;;;;;;;;;6178791;23;20104;-74
2022/09/09 04:06:39;;;;;;;2.95;1.98;;;;;;;;;;6179342;23;20099;-74
2022/09/09 04:09:06;;;;;;;2.00;1.80;;;;;;;;;;6181465;23;20017;-74
2022/09/09 04:11:33;;;;;;;3.65;2.05;;;;;;;;;;6178877;23;20031;-74
2022/09/09 04:14:08;;;;;;;5.32;2.20;;;;;;;;;;6180778;23;20096;-74
2022/09/09 04:16:37;;;;;;;4.30;2.28;;;;;;;;;;6153779;23;20052;-75
2022/09/09 04:19:06;;;;;;;14.60;2.30;;;;;;;;;;6179690;23;20367;-74
2022/09/09 04:21:40;;;;;;;3.40;2.20;;;;;;;;;;6155107;23;20021;-74
2022/09/09 04:24:07;;;;;;;;;;;;;;;;;;6179648;23;20846;-74
2022/09/09 04:26:41;;;;;;;7.07;2.08;;;;;;;;;;6178821;23;19991;-74
2022/09/09 04:29:15;;;;;;;2.42;2.08;;;;;;;;;;6179513;23;20068;-75
2022/09/09 04:31:42;;;;;;;12.40;2.55;;;;;;;;;;6178606;23;20021;-75
2022/09/09 04:34:10;;;;;;;2.50;2.00;;;;;;;;;;6179216;23;20021;-75
2022/09/09 04:36:44;;;;;;;4.38;2.03;;;;;;;;;;6178798;23;20092;-74
2022/09/09 04:39:11;;;;;;;6.28;2.28;;;;;;;;;;6178431;23;20402;-74
2022/09/09 04:41:38;;;;;;;6.10;1.90;;;;;;;;;;6180825;23;20092;-74
2022/09/09 04:44:12;;;;;;;3.20;2.08;;;;;;;;;;6181752;23;20025;-74
2022/09/09 04:46:41;;;;;;;3.22;2.17;;;;;;;;;;6181716;23;20096;-74
2022/09/09 04:49:08;;;;;;;5.65;2.20;;;;;;;;;;6180467;23;20099;-74
2022/09/09 04:51:42;;;;;;;5.03;2.28;;;;;;;;;;6156820;23;20367;-75
2022/09/09 04:54:11;;;;;;;4.85;2.30;;;;;;;;;;6180997;23;20032;-74
2022/09/09 04:56:38;;;;;;;3.28;2.30;;;;;;;;;;6179089;23;20524;-74
2022/09/09 04:59:12;;;;;;;2.70;1.83;;;;;;;;;;6180488;23;20017;-75
2022/09/09 05:01:40;;;;;;;2.95;2.20;;;;;;;;;;6179967;23;20135;-74
2022/09/09 05:04:08;;;;;;;;;;;;;;;;;;6181043;23;20091;-74
2022/09/09 05:06:42;;;;;;;4.72;2.30;;;;;;;;;;6181459;23;19998;-75
2022/09/09 05:09:09;;;;;;;3.75;2.05;;;;;;;;;;6180461;23;20091;-74
2022/09/09 05:11:36;;;;;;;3.35;2.00;;;;;;;;;;6181472;23;20021;-75
2022/09/09 05:14:11;;;;;;;2.53;1.70;;;;;;;;;;6181826;23;20027;-74
2022/09/09 05:16:39;;;;;;;6.30;2.30;;;;;;;;;;6181243;23;20343;-73
2022/09/09 05:19:07;;;;;;;3.42;1.90;;;;;;;;;;6181870;23;20147;-74
2022/09/09 05:21:42;;;;;;;4.35;1.90;;;;;;;;;;6158129;23;20087;-75
2022/09/09 05:24:15;;;;;;;2.70;2.10;;;;;;;;;;6181732;23;20100;-74
2022/09/09 05:26:57;;;;;;;1.90;1.63;;;;;;;;;;6181060;23;20024;-74
2022/09/09 05:29:25;;;;;;;3.58;1.92;;;;;;;;;;6182312;23;20053;-74
2022/09/09 05:32:02;;;;;;;2.97;1.90;;;;;;;;;;6181910;23;20100;-74
2022/09/09 05:34:29;;;;;;;2.50;2.00;;;;;;;;;;6182400;23;20091;-74
2022/09/09 05:36:56;;;;;;;3.50;2.00;;;;;;;;;;6181268;23;20526;-74
2022/09/09 05:39:30;;;;;;;1.88;1.70;;;;;;;;;;6182385;23;20032;-74
2022/09/09 05:41:57;;;;;;;2.55;1.70;;;;;;;;;;6155879;23;20389;-74
2022/09/09 05:44:27;;;;;;;3.70;1.88;;;;;;;;;;6181846;23;20025;-75
2022/09/09 05:47:02;;;;;;;3.93;1.60;;;;;;;;;;6181459;23;20021;-74
2022/09/09 05:49:29;;;;;;;5.82;1.70;;;;;;;;;;6182185;23;20021;-74
2022/09/09 05:51:56;;;;;;;4.30;1.90;;;;;;;;;;6182390;23;20105;-73
2022/09/09 05:54:32;;;;;;;4.13;1.98;;;;;;;;;;6181753;23;20092;-74
2022/09/09 05:56:59;;;;;;;2.75;1.70;;;;;;;;;;6181702;23;20108;-74
2022/09/09 05:59:26;;;;;;;7.68;2.30;;;;;;;;;;6181609;23;20104;-74
2022/09/09 06:02:01;;;;;;;2.63;1.55;;;;;;;;;;6181709;23;20021;-74
2022/09/09 06:04:28;;;;;;;3.35;1.98;;;;;;;;;;6182261;23;20025;-74
2022/09/09 06:06:55;;;;;;;2.88;1.48;;;;;;;;;;6181285;23;20017;-74
2022/09/09 06:09:30;;;;;;;2.88;1.80;;;;;;;;;;6182128;23;20055;-75
2022/09/09 06:11:58;;;;;;;3.10;1.67;;;;;;;;;;6181518;23;20466;-74
2022/09/09 06:14:28;;;;;;;3.90;1.70;;;;;;;;;;6180885;23;20240;-75
2022/09/09 06:17:02;;;;;;;6.47;1.60;;;;;;;;;;6181193;23;20024;-74
2022/09/09 06:19:30;;;;;;;;;;;;;;;;;;6182162;23;20033;-74
2022/09/09 06:21:58;;;;;;;3.55;1.67;;;;;;;;;;6180829;23;19927;-74
2022/09/09 06:24:38;;;;;;;3.78;1.80;;;;;;;;;;6180440;23;20462;-75
2022/09/09 06:27:13;;;;;;;2.50;1.75;;;;;;;;;;6179706;23;20136;-74
2022/09/09 06:29:47;;;;;;;9.90;1.67;;;;;;;;;;6181750;23;20043;-74
2022/09/09 06:32:15;;;;;;;3.60;1.58;;;;;;;;;;6180044;23;20116;-74
2022/09/09 06:34:42;;;;;;;7.15;2.17;;;;;;;;;;6181172;23;20020;-73
2022/09/09 06:37:16;;;;;;;12.32;1.90;;;;;;;;;;6179842;23;20031;-74
2022/09/09 06:39:43;;;;;;;;;;;;;;;;;;6180318;23;20016;-74
2022/09/09 06:42:10;;;;;;;5.68;2.00;;;;;;;;;;6180672;23;19924;-74
2022/09/09 06:44:45;;;;;;;6.38;1.65;;;;;;;;;;6156467;23;20039;-75
2022/09/09 06:47:12;;;;;;;4.70;1.90;;;;;;;;;;6178819;23;20100;-74
2022/09/09 06:49:39;;;;;;;2.30;1.40;;;;;;;;;;6180379;23;20111;-74
2022/09/09 06:52:14;;;;;;;4.57;1.70;;;;;;;;;;6156729;23;20017;-76
2022/09/09 06:54:41;;;;;;;4.35;1.38;;;;;;;;;;6181072;23;20056;-74
2022/09/09 06:57:08;;;;;;;4.53;1.60;;;;;;;;;;6179573;23;20021;-76
2022/09/09 07:00:02;;;;;;;4.55;1.90;;;;;;;;;;6180099;23;20659;-77
2022/09/09 07:02:29;;;;;;;5.03;1.70;;;;;;;;;;6153201;23;20104;-74
2022/09/09 07:05:04;;;;;;;4.10;1.67;;;;;;;;;;6180983;23;20025;-74
2022/09/09 07:07:31;;;;;;;4.32;1.70;;;;;;;;;;6179067;23;20545;-74
2022/09/09 07:09:58;;;;;;;5.75;1.58;;;;;;;;;;6180363;23;20024;-75
2022/09/09 07:12:32;;;;;;;5.45;2.10;;;;;;;;;;6179691;23;20047;-76
2022/09/09 07:14:59;;;;;;;2.90;1.88;;;;;;;;;;6181066;23;20100;-75
2022/09/09 07:17:28;;;;;;;3.47;1.45;;;;;;;;;;6178387;23;20104;-73
2022/09/09 07:20:04;;;;;;;3.28;1.65;;;;;;;;;;6181096;23;20064;-75
2022/09/09 07:22:31;;;;;;;5.03;1.50;;;;;;;;;;6180220;23;20063;-74
2022/09/09 07:24:58;;;;;;;4.50;1.60;;;;;;;;;;6179930;23;20020;-75
2022/09/09 07:27:38;;;;;;;7.15;1.75;;;;;;;;;;6180325;23;20056;-76
2022/09/09 07:30:06;;;;;;;6.18;2.00;;;;;;;;;;6181289;23;20025;-74
2022/09/09 07:32:51;;;;;;;3.25;1.90;;;;;;;;;;6180291;23;20021;-74
2022/09/09 07:35:18;;;;;;;4.32;2.00;;;;;;;;;;6181170;23;20458;-75
2022/09/09 07:37:52;;;;;;;5.65;1.98;;;;;;;;;;6179521;23;20028;-75
2022/09/09 07:40:21;;;;;;;3.22;1.75;;;;;;;;;;6179467;23;20441;-75
2022/09/09 07:42:48;;;;;;;3.03;1.80;;;;;;;;;;6180746;23;20021;-76
2022/09/09 07:45:23;;;;;;;8.52;2.17;;;;;;;;;;6178996;23;20100;-77
2022/09/09 07:47:52;;;;;;;;;;;;;;;;;;6180526;23;20035;-74
2022/09/09 07:50:19;;;;;;;;;;;;;;;;;;6180670;23;20294;-76
2022/09/09 07:52:53;;;;;;;5.20;2.10;;;;;;;;;;6154947;23;20304;-74
2022/09/09 07:55:21;;;;;;;8.20;2.33;;;;;;;;;;6179497;23;20489;-77
2022/09/09 07:57:48;;;;;;;7.10;1.98;;;;;;;;;;6180346;23;20024;-74
2022/09/09 08:00:22;;;;;;;9.00;2.20;;;;;;;;;;6181547;23;20108;-74
2022/09/09 08:02:49;;;;;;;6.28;2.22;;;;;;;;;;6179748;23;20104;-73
2022/09/09 08:05:16;;;;;;;5.70;1.85;;;;;;;;;;6180083;23;20024;-74
2022/09/09 08:07:50;;;;;;;7.78;1.95;;;;;;;;;;6180070;23;20060;-75
2022/09/09 08:10:17;;;;;;;5.28;2.05;;;;;;;;;;6180693;23;20017;-75
2022/09/09 08:12:45;;;;;;;4.47;1.90;;;;;;;;;;6179407;23;20107;-75
2022/09/09 08:15:39;;;;;;;4.07;2.00;;;;;;;;;;6179268;23;20382;-75
2022/09/09 08:18:06;;;;;;;7.53;2.10;;;;;;;;;;6179784;23;20059;-75
2022/09/09 08:20:41;;;;;;;4.50;2.15;;;;;;;;;;6180287;23;20025;-74
2022/09/09 08:23:09;;;;;;;7.13;2.72;;;;;;;;;;6179221;23;20031;-75
2022/09/09 08:25:36;;;;;;;7.78;2.03;;;;;;;;;;6178168;23;20139;-75
2022/09/09 08:28:16;;;;;;;3.92;1.63;;;;;;;;;;6154003;23;20462;-74
2022/09/09 08:30:43;;;;;;;6.40;1.90;;;;;;;;;;6178871;23;20136;-75
2022/09/09 08:33:18;;;;;;;7.63;2.22;;;;;;;;;;6179634;23;20051;-75
2022/09/09 08:35:52;;;;;;;9.60;2.28;;;;;;;;;;6180580;23;20057;-75
2022/09/09 08:38:28;;;;;;;4.15;1.92;;;;;;;;;;6179133;23;20055;-75
2022/09/09 08:41:00;;;;;;;5.53;2.40;;;;;;;;;;6179608;23;20021;-76
2022/09/09 08:43:35;;;;;;;8.60;2.40;;;;;;;;;;6179806;23;20023;-75
2022/09/09 08:46:03;;;;;;;7.25;1.95;;;;;;;;;;6179915;23;20025;-75
2022/09/09 08:48:31;;;;;;;5.63;1.98;;;;;;;;;;6179345;23;20028;-75
2022/09/09 08:51:07;;;;;;;8.27;2.08;;;;;;;;;;6180041;23;20124;-75
2022/09/09 08:53:41;;;;;;;8.73;2.60;;;;;;;;;;6179098;23;20032;-75
2022/09/09 08:56:18;;;;;;;5.68;1.92;;;;;;;;;;6179700;23;20516;-74
2022/09/09 08:58:50;;;;;;;3.70;2.10;;;;;;;;;;6179584;23;20103;-75
2022/09/09 09:01:24;;;;;;;4.72;1.90;;;;;;;;;;6178731;23;20043;-75
2022/09/09 09:03:57;;;;;;;5.10;1.92;;;;;;;;;;6179428;23;20049;-75
2022/09/09 09:06:35;;;;;;;11.63;2.10;;;;;;;;;;6179352;23;20566;-75
2022/09/09 09:09:08;;;;;;;12.52;2.28;;;;;;;;;;6178689;23;20021;-76
2022/09/09 09:11:53;;;;;;;4.82;2.00;;;;;;;;;;6179233;23;20029;-75
2022/09/09 09:14:28;;;;;;;8.65;2.17;;;;;;;;;;6178513;23;20406;-75
2022/09/09 09:17:13;;;;;;;4.47;1.73;;;;;;;;;;6178487;23;20115;-74
2022/09/09 09:19:41;;;;;;;5.75;2.05;;;;;;;;;;6154166;23;20025;-75
2022/09/09 09:22:22;;;;;;;4.85;2.35;;;;;;;;;;6179440;23;20045;-75
2022/09/09 09:25:02;;;;;;;7.75;2.00;;;;;;;;;;6179365;23;20029;-75
2022/09/09 09:27:40;;;;;;;4.97;1.90;;;;;;;;;;6180932;23;20056;-75
2022/09/09 09:30:21;;;;;;;10.23;2.55;;;;;;;;;;6182060;23;20036;-75
2022/09/09 09:32:56;;;;;;;;;;;;;;;;;;6182882;23;20028;-75
2022/09/09 09:35:24;;;;;;;4.70;1.85;;;;;;;;;;6180750;23;19922;-75
2022/09/09 09:37:51;;;;;;;8.02;1.85;;;;;;;;;;6180726;23;20048;-75
2022/09/09 09:40:51;;;;;;;4.93;1.90;;;;;;;;;;6182648;23;20493;-75
2022/09/09 09:43:24;;;;;;;4.18;2.17;;;;;;;;;;6182228;23;20105;-76
2022/09/09 09:45:59;;;;;;;4.85;2.10;;;;;;;;;;6182133;23;20060;-74
2022/09/09 09:48:43;;;;;;;12.38;2.45;;;;;;;;;;6180584;23;20029;-75
2022/09/09 09:51:18;;;;;;;4.10;2.08;;;;;;;;;;6180049;23;20021;-76
2022/09/09 09:53:45;;;;;;;10.95;2.10;;;;;;;;;;6155263;23;20027;-76
2022/09/09 09:56:14;;;;;;;3.90;2.03;;;;;;;;;;6154260;23;20031;-75
2022/09/09 09:58:50;;;;;;;7.15;2.30;;;;;;;;;;6181629;23;20522;-74
2022/09/09 10:01:25;;;;;;;3.03;1.80;;;;;;;;;;6181222;23;20029;-75
2022/09/09 10:04:03;;;;;;;3.72;1.75;;;;;;;;;;6181485;23;20111;-75
2022/09/09 10:06:32;;;;;;;8.52;2.35;;;;;;;;;;6180933;23;20410;-75
2022/09/09 10:09:28;;;;;;;6.43;2.00;;;;;;;;;;6181563;23;20025;-75
2022/09/09 10:11:55;;;;;;;8.20;2.33;;;;;;;;;;6180082;23;20104;-75
2022/09/09 10:14:40;;;;;;;5.57;2.22;;;;;;;;;;6180749;23;20354;-75
2022/09/09 10:17:10;;;;;;;5.40;2.20;;;;;;;;;;6180195;23;20344;-74
2022/09/09 10:19:55;;;;;;;4.90;2.03;;;;;;;;;;6181505;23;20507;-75
2022/09/09 10:22:29;;;;;;;6.68;2.50;;;;;;;;;;6154083;23;20497;-75
2022/09/09 10:25:37;;;;;;;9.60;2.10;;;;;;;;;;6156301;23;20412;-75
2022/09/09 10:28:22;;;;;;;12.90;1.92;;;;;;;;;;6169939;23;20056;-74
2022/09/09 10:31:11;;;;;;;7.88;2.03;;;;;;;;;;6181485;23;20043;-75
2022/09/09 10:33:45;;;;;;;7.60;2.00;;;;;;;;;;6181120;23;20052;-75
2022/09/09 10:36:18;;;;;;;8.70;1.90;;;;;;;;;;6180965;23;20123;-76
2022/09/09 10:38:47;;;;;;;5.00;1.88;;;;;;;;;;6181684;23;20029;-75
2022/09/09 10:41:19;;;;;;;8.32;2.10;;;;;;;;;;6182107;23;20092;-75
2022/09/09 10:44:00;;;;;;;6.93;1.88;;;;;;;;;;6180518;23;20017;-74
2022/09/09 10:46:46;;;;;;;4.95;1.90;;;;;;;;;;6181013;23;20105;-74
2022/09/09 10:49:23;;;;;;;5.35;2.10;;;;;;;;;;6156448;23;20021;-76
2022/09/09 10:52:02;;;;;;;5.18;2.03;;;;;;;;;;6179141;23;20064;-75
2022/09/09 10:54:54;;;;;;;4.07;1.92;;;;;;;;;;6180471;23;20021;-75
2022/09/09 10:57:28;;;;;;;8.65;2.30;;;;;;;;;;6181006;23;20025;-75
2022/09/09 11:00:04;;;;;;;7.68;2.42;;;;;;;;;;6179730;23;20029;-75
2022/09/09 11:02:32;;;;;;;11.20;2.35;;;;;;;;;;6180110;23;20458;-75
2022/09/09 11:05:11;;;;;;;5.50;2.38;;;;;;;;;;6180009;23;20108;-75
2022/09/09 11:07:52;;;;;;;6.47;1.83;;;;;;;;;;6180084;23;20096;-75
2022/09/09 11:10:25;;;;;;;6.70;1.92;;;;;;;;;;6180748;23;20017;-74
2022/09/09 11:13:01;;;;;;;7.07;2.15;;;;;;;;;;6179745;23;20111;-76
2022/09/09 11:15:43;;;;;;;7.32;2.22;;;;;;;;;;6181100;23;20418;-75
2022/09/09 11:18:23;;;;;;;4.30;1.98;;;;;;;;;;6181054;23;20025;-75
2022/09/09 11:20:58;;;;;;;3.40;2.05;;;;;;;;;;6180424;23;20021;-75
2022/09/09 11:23:41;;;;;;;6.35;2.08;;;;;;;;;;6180988;23;20027;-76
2022/09/09 11:26:35;;;;;;;7.28;2.30;;;;;;;;;;6168341;23;20024;-74
2022/09/09 11:29:10;;;;;;;6.35;2.00;;;;;;;;;;6180473;23;20104;-74
2022/09/09 11:31:50;;;;;;;5.15;2.20;;;;;;;;;;6179710;23;20021;-76
2022/09/09 11:34:33;;;;;;;5.85;2.30;;;;;;;;;;6180263;23;20095;-75
2022/09/09 11:37:19;;;;;;;3.55;2.25;;;;;;;;;;6180234;23;20766;-75
2022/09/09 11:40:02;;;;;;;3.83;1.95;;;;;;;;;;6179126;23;20459;-76
2022/09/09 11:42:29;;;;;;;8.65;2.22;;;;;;;;;;6178378;23;20021;-75
2022/09/09 11:45:11;;;;;;;8.30;2.33;;;;;;;;;;6180167;23;20100;-75
2022/09/09 11:47:38;;;;;;;5.75;2.00;;;;;;;;;;6180483;23;20493;-76
2022/09/09 11:50:15;;;;;;;4.68;2.20;;;;;;;;;;6179750;23;20063;-74
2022/09/09 11:52:45;;;;;;;7.15;2.60;;;;;;;;;;6179454;23;20358;-74
2022/09/09 11:55:29;;;;;;;9.90;2.45;;;;;;;;;;6180521;23;20064;-75
2022/09/09 11:58:00;;;;;;;6.63;2.40;;;;;;;;;;6180408;23;20064;-75
2022/09/09 12:00:36;;;;;;;5.97;2.08;;;;;;;;;;6179415;23;20031;-75
2022/09/09 12:03:05;;;;;;;4.53;2.20;;;;;;;;;;6180200;23;20500;-75
2022/09/09 12:05:37;;;;;;;8.48;2.55;;;;;;;;;;6179389;23;20100;-74
2022/09/09 12:08:12;;;;;;;7.75;2.50;;;;;;;;;;6179657;23;20056;-75
2022/09/09 12:10:40;;;;;;;5.53;2.55;;;;;;;;;;6179527;23;20419;-75
2022/09/09 12:13:16;;;;;;;4.20;2.75;;;;;;;;;;6179646;23;20056;-75
2022/09/09 12:15:51;;;;;;;6.25;2.50;;;;;;;;;;6180466;23;20096;-76
2022/09/09 12:18:39;;;;;;;8.85;2.75;;;;;;;;;;6177814;23;20091;-75
2022/09/09 12:21:19;;;;;;;7.82;3.05;;;;;;;;;;6180188;23;20060;-76
2022/09/09 12:23:52;;;;;;;8.57;3.35;;;;;;;;;;6178758;23;20355;-76
2022/09/09 12:26:44;;;;;;;8.55;2.70;;;;;;;;;;6179415;23;20770;-76
2022/09/09 12:29:26;;;;;;;5.32;2.50;;;;;;;;;;6180036;23;20100;-76
2022/09/09 12:32:04;;;;;;;10.10;2.90;;;;;;;;;;6155845;23;20107;-76
2022/09/09 12:34:37;;;;;;;11.50;3.00;;;;;;;;;;6179369;23;20043;-76
2022/09/09 12:37:18;;;;;;;4.80;2.75;;;;;;;;;;6180118;23;20024;-75
2022/09/09 12:39:50;;;;;;;9.45;3.30;;;;;;;;;;6180450;23;20108;-76
2022/09/09 12:42:24;;;;;;;6.93;2.85;;;;;;;;;;6180220;23;20017;-75
2022/09/09 12:44:55;;;;;;;6.70;3.10;;;;;;;;;;6180775;23;20104;-75
2022/09/09 12:47:26;;;;;;;5.40;2.75;;;;;;;;;;6181541;23;20108;-76
2022/09/09 12:50:00;;;;;;;8.88;3.53;;;;;;;;;;6179588;23;20033;-76
2022/09/09 12:52:36;;;;;;;10.15;3.10;;;;;;;;;;6180970;23;20049;-76
2022/09/09 12:55:17;;;;;;;7.63;3.65;;;;;;;;;;6179768;23;20136;-74
2022/09/09 12:57:44;;;;;;;9.70;3.20;;;;;;;;;;6180616;23;20049;-76
2022/09/09 13:00:23;;;;;;;7.55;3.03;;;;;;;;;;6154455;23;20103;-76
2022/09/09 13:02:50;;;;;;;7.03;2.90;;;;;;;;;;6182755;23;20049;-76
2022/09/09 13:05:27;;;;;;;12.05;3.45;;;;;;;;;;6182495;23;20031;-76
2022/09/09 13:08:03;;;;;;;7.68;3.00;;;;;;;;;;6159438;23;20031;-76
2022/09/09 13:10:33;;;;;;;10.45;2.75;;;;;;;;;;6182765;23;20023;-76
2022/09/09 13:13:23;;;;;;;4.47;2.55;;;;;;;;;;6182546;23;20113;-76
2022/09/09 13:15:58;;;;;;;5.22;2.53;;;;;;;;;;6135257;23;20105;-75
2022/09/09 13:18:28;;;;;;;8.60;3.05;;;;;;;;;;6181735;23;20036;-76
2022/09/09 13:20:57;;;;;;;7.43;2.90;;;;;;;;;;6181401;23;20032;-74
2022/09/09 13:23:32;;;;;;;10.35;2.95;;;;;;;;;;6182984;23;20087;-76
2022/09/09 13:26:07;;;;;;;5.65;2.90;;;;;;;;;;6163434;23;20025;-76
2022/09/09 13:28:49;;;;;;;7.90;3.10;;;;;;;;;;6182058;23;20546;-76
2022/09/09 13:31:22;;;;;;;3.88;2.88;;;;;;;;;;6182801;23;20028;-76
2022/09/09 13:33:57;;;;;;;7.15;3.05;;;;;;;;;;6180161;23;20944;-76
2022/09/09 13:36:34;;;;;;;6.95;3.33;;;;;;;;;;6182236;23;20032;-76
2022/09/09 13:39:20;;;;;;;5.57;2.95;;;;;;;;;;6181847;23;20021;-76
2022/09/09 13:41:50;;;;;;;4.72;2.88;;;;;;;;;;6180518;23;20063;-76
2022/09/09 13:44:29;;;;;;;9.88;3.28;;;;;;;;;;6181426;23;20021;-76
2022/09/09 13:47:01;;;;;;;6.65;2.70;;;;;;;;;;6181262;23;20415;-76
2022/09/09 13:49:37;;;;;;;6.53;3.05;;;;;;;;;;6181523;23;20398;-76
2022/09/09 13:52:08;;;;;;;6.75;2.67;;;;;;;;;;6179945;23;20104;-76
2022/09/09 13:54:43;;;;;;;8.38;3.58;;;;;;;;;;6180423;23;20056;-76
2022/09/09 13:57:19;;;;;;;7.03;3.20;;;;;;;;;;6181656;23;20029;-75
2022/09/09 13:59:57;;;;;;;4.97;2.85;;;;;;;;;;6182184;23;20100;-76
2022/09/09 14:02:31;;;;;;;12.38;2.85;;;;;;;;;;6181819;23;20044;-76
2022/09/09 14:05:06;;;;;;;6.22;2.90;;;;;;;;;;6181232;23;20076;-76
2022/09/09 14:07:33;;;;;;;7.90;3.20;;;;;;;;;;6178656;23;20027;-76
2022/09/09 14:10:00;;;;;;;5.82;3.47;;;;;;;;;;6180255;23;20100;-76
2022/09/09 14:12:36;;;;;;;6.50;3.80;;;;;;;;;;6179437;23;20447;-76
2022/09/09 14:15:04;;;;;;;6.40;3.05;;;;;;;;;;6181974;23;20112;-77
2022/09/09 14:17:31;;;;;;;6.05;2.97;;;;;;;;;;6154912;23;20039;-76
2022/09/09 14:20:11;;;;;;;7.45;3.05;;;;;;;;;;6179927;23;20450;-76
2022/09/09 14:22:41;;;;;;;6.30;3.70;;;;;;;;;;6181072;23;20112;-76
2022/09/09 14:25:22;;;;;;;7.53;3.70;;;;;;;;;;6181266;23;20057;-76
2022/09/09 14:27:56;;;;;;;10.10;3.70;;;;;;;;;;6180928;23;20053;-76
2022/09/09 14:30:30;;;;;;;10.45;3.90;;;;;;;;;;6180520;23;20100;-76
2022/09/09 14:32:57;;;;;;;9.05;3.65;;;;;;;;;;6180731;23;20021;-76
2022/09/09 14:35:24;;;;;;;7.13;3.60;;;;;;;;;;6180641;23;20100;-76
2022/09/09 14:37:58;;;;;;;5.50;3.47;;;;;;;;;;6156912;23;20140;-75
2022/09/09 14:40:25;;;;;;;7.70;3.75;;;;;;;;;;6155088;23;20032;-75
2022/09/09 14:42:53;;;;;;;7.05;3.65;;;;;;;;;;6180273;23;20027;-76
2022/09/09 14:45:27;;;;;;;6.32;3.75;;;;;;;;;;6181186;23;20349;-75
2022/09/09 14:47:55;;;;;;;7.72;3.60;;;;;;;;;;6181325;23;20541;-75
2022/09/09 14:50:23;;;;;;;9.20;3.88;;;;;;;;;;6180971;23;20376;-76
2022/09/09 14:52:57;;;;;;;9.75;4.00;;;;;;;;;;6180839;23;20025;-75
2022/09/09 14:55:24;;;;;;;6.95;4.28;;;;;;;;;;6180924;23;20113;-77
2022/09/09 14:57:51;;;;;;;11.77;4.88;;;;;;;;;;6181662;23;20032;-76
2022/09/09 15:00:25;;;;;;;7.53;3.80;;;;;;;;;;6178898;23;20052;-76
2022/09/09 15:02:57;;;;;;;13.98;4.50;;;;;;;;;;6180865;23;20016;-77
2022/09/09 15:05:25;;;;;;;9.40;3.88;;;;;;;;;;6180550;23;20064;-76
2022/09/09 15:07:59;;;;;;;7.68;4.70;;;;;;;;;;6154890;23;20414;-76
2022/09/09 15:10:26;;;;;;;10.50;4.50;;;;;;;;;;6180245;23;20025;-76
2022/09/09 15:12:53;;;;;;;7.13;4.13;;;;;;;;;;6180822;23;20025;-76
2022/09/09 15:15:27;;;;;;;14.68;3.83;;;;;;;;;;6155754;23;20025;-76
2022/09/09 15:17:54;;;;;;;7.88;3.83;;;;;;;;;;6180336;23;20099;-76
2022/09/09 15:20:21;;;;;;;11.07;4.65;;;;;;;;;;6181227;23;20025;-76
2022/09/09 15:22:56;;;;;;;10.25;4.53;;;;;;;;;;6179861;23;20017;-76
2022/09/09 15:25:29;;;;;;;9.30;4.32;;;;;;;;;;6179133;23;20032;-76